sensor_id;sensor_type;location;lat;lon;timestamp;P1;durP1;ratioP1;P2;durP2;ratioP2
46835;SDS011;32573;51.290;6.926;2022-07-30T00:00:39;4.35;;;2.00;;
46835;SDS011;32573;51.290;6.926;2022-07-30T00:03:07;3.50;;;2.03;;
46835;SDS011;32573;51.290;6.926;2022-07-30T00:05:36;4.50;;;2.00;;
46835;SDS011;32573;51.290;6.926;2022-07-30T00:08:04;4.10;;;2.15;;
46835;SDS011;32573;51.290;6.926;2022-07-30T00:10:33;3.75;;;2.10;;
46835;SDS011;32573;51.290;6.926;2022-07-30T00:13:01;4.07;;;2.20;;
46835;SDS011;32573;51.290;6.926;2022-07-30T00:15:31;3.75;;;2.10;;
46835;SDS011;32573;51.290;6.926;2022-07-30T00:18:00;4.28;;;2.28;;
46835;SDS011;32573;51.290;6.926;2022-07-30T00:20:28;5.55;;;2.22;;
46835;SDS011;32573;51.290;6.926;2022-07-30T00:22:58;3.95;;;2.10;;
46835;SDS011;32573;51.290;6.926;2022-07-30T00:25:30;3.80;;;2.10;;
46835;SDS011;32573;51.290;6.926;2022-07-30T00:27:58;3.80;;;2.20;;
46835;SDS011;32573;51.290;6.926;2022-07-30T00:30:27;4.20;;;2.00;;
46835;SDS011;32573;51.290;6.926;2022-07-30T00:32:57;3.35;;;1.88;;
46835;SDS011;32573;51.290;6.926;2022-07-30T00:35:25;4.20;;;2.20;;
46835;SDS011;32573;51.290;6.926;2022-07-30T00:37:54;4.60;;;2.25;;
46835;SDS011;32573;51.290;6.926;2022-07-30T00:40:22;3.75;;;2.05;;
46835;SDS011;32573;51.290;6.926;2022-07-30T00:42:51;4.53;;;2.45;;
46835;SDS011;32573;51.290;6.926;2022-07-30T00:45:19;5.60;;;2.30;;
46835;SDS011;32573;51.290;6.926;2022-07-30T00:47:48;5.03;;;2.30;;
46835;SDS011;32573;51.290;6.926;2022-07-30T00:50:18;4.50;;;2.63;;
46835;SDS011;32573;51.290;6.926;2022-07-30T00:52:47;4.40;;;2.42;;
46835;SDS011;32573;51.290;6.926;2022-07-30T00:55:16;5.28;;;2.50;;
46835;SDS011;32573;51.290;6.926;2022-07-30T00:57:44;5.68;;;2.70;;
46835;SDS011;32573;51.290;6.926;2022-07-30T01:00:14;4.68;;;2.60;;
46835;SDS011;32573;51.290;6.926;2022-07-30T01:02:43;5.68;;;2.58;;
46835;SDS011;32573;51.290;6.926;2022-07-30T01:05:12;4.18;;;2.40;;
46835;SDS011;32573;51.290;6.926;2022-07-30T01:07:42;5.05;;;2.50;;
46835;SDS011;32573;51.290;6.926;2022-07-30T01:10:12;4.00;;;2.47;;
46835;SDS011;32573;51.290;6.926;2022-07-30T01:12:42;4.43;;;2.60;;
46835;SDS011;32573;51.290;6.926;2022-07-30T01:15:11;4.40;;;2.80;;
46835;SDS011;32573;51.290;6.926;2022-07-30T01:17:40;4.57;;;2.67;;
46835;SDS011;32573;51.290;6.926;2022-07-30T01:20:10;5.72;;;3.13;;
46835;SDS011;32573;51.290;6.926;2022-07-30T01:22:46;4.45;;;2.58;;
46835;SDS011;32573;51.290;6.926;2022-07-30T01:25:24;5.53;;;2.60;;
46835;SDS011;32573;51.290;6.926;2022-07-30T01:28:10;4.60;;;2.38;;
46835;SDS011;32573;51.290;6.926;2022-07-30T01:30:44;5.70;;;2.63;;
46835;SDS011;32573;51.290;6.926;2022-07-30T01:33:16;5.97;;;2.72;;
46835;SDS011;32573;51.290;6.926;2022-07-30T01:35:46;4.50;;;2.75;;
46835;SDS011;32573;51.290;6.926;2022-07-30T01:38:18;5.53;;;2.78;;
46835;SDS011;32573;51.290;6.926;2022-07-30T01:40:51;5.65;;;2.92;;
46835;SDS011;32573;51.290;6.926;2022-07-30T01:43:21;4.38;;;2.47;;
46835;SDS011;32573;51.290;6.926;2022-07-30T01:45:52;4.45;;;2.50;;
46835;SDS011;32573;51.290;6.926;2022-07-30T01:48:22;5.68;;;2.70;;
46835;SDS011;32573;51.290;6.926;2022-07-30T01:50:54;3.92;;;2.28;;
46835;SDS011;32573;51.290;6.926;2022-07-30T01:53:26;6.45;;;2.42;;
46835;SDS011;32573;51.290;6.926;2022-07-30T01:55:59;4.07;;;2.40;;
46835;SDS011;32573;51.290;6.926;2022-07-30T01:58:30;4.32;;;2.40;;
46835;SDS011;32573;51.290;6.926;2022-07-30T02:01:13;3.70;;;2.10;;
46835;SDS011;32573;51.290;6.926;2022-07-30T02:03:42;5.28;;;2.58;;
46835;SDS011;32573;51.290;6.926;2022-07-30T02:06:11;4.88;;;2.42;;
46835;SDS011;32573;51.290;6.926;2022-07-30T02:08:47;4.60;;;2.42;;
46835;SDS011;32573;51.290;6.926;2022-07-30T02:11:21;4.22;;;2.30;;
46835;SDS011;32573;51.290;6.926;2022-07-30T02:14:10;4.63;;;2.30;;
46835;SDS011;32573;51.290;6.926;2022-07-30T02:16:44;4.15;;;2.42;;
46835;SDS011;32573;51.290;6.926;2022-07-30T02:19:20;3.70;;;2.03;;
46835;SDS011;32573;51.290;6.926;2022-07-30T02:22:00;4.18;;;2.40;;
46835;SDS011;32573;51.290;6.926;2022-07-30T02:24:33;6.25;;;2.67;;
46835;SDS011;32573;51.290;6.926;2022-07-30T02:27:09;4.15;;;2.40;;
46835;SDS011;32573;51.290;6.926;2022-07-30T02:29:41;4.32;;;2.30;;
46835;SDS011;32573;51.290;6.926;2022-07-30T02:32:12;6.15;;;2.70;;
46835;SDS011;32573;51.290;6.926;2022-07-30T02:34:45;4.40;;;2.30;;
46835;SDS011;32573;51.290;6.926;2022-07-30T02:37:16;5.35;;;2.67;;
46835;SDS011;32573;51.290;6.926;2022-07-30T02:40:09;4.18;;;2.35;;
46835;SDS011;32573;51.290;6.926;2022-07-30T02:42:44;4.35;;;2.40;;
46835;SDS011;32573;51.290;6.926;2022-07-30T02:45:19;5.45;;;2.55;;
46835;SDS011;32573;51.290;6.926;2022-07-30T02:47:52;6.32;;;2.80;;
46835;SDS011;32573;51.290;6.926;2022-07-30T02:50:23;4.70;;;2.67;;
46835;SDS011;32573;51.290;6.926;2022-07-30T02:52:53;4.57;;;2.50;;
46835;SDS011;32573;51.290;6.926;2022-07-30T02:55:25;4.65;;;2.70;;
46835;SDS011;32573;51.290;6.926;2022-07-30T02:57:56;4.22;;;2.53;;
46835;SDS011;32573;51.290;6.926;2022-07-30T03:00:27;4.30;;;2.47;;
46835;SDS011;32573;51.290;6.926;2022-07-30T03:02:59;4.75;;;2.67;;
46835;SDS011;32573;51.290;6.926;2022-07-30T03:05:29;5.38;;;2.58;;
46835;SDS011;32573;51.290;6.926;2022-07-30T03:07:58;6.78;;;2.78;;
46835;SDS011;32573;51.290;6.926;2022-07-30T03:10:28;5.80;;;3.08;;
46835;SDS011;32573;51.290;6.926;2022-07-30T03:12:59;5.13;;;2.92;;
46835;SDS011;32573;51.290;6.926;2022-07-30T03:15:29;5.07;;;2.80;;
46835;SDS011;32573;51.290;6.926;2022-07-30T03:18:05;4.38;;;2.50;;
46835;SDS011;32573;51.290;6.926;2022-07-30T03:20:36;4.63;;;2.63;;
46835;SDS011;32573;51.290;6.926;2022-07-30T03:23:06;4.55;;;2.40;;
46835;SDS011;32573;51.290;6.926;2022-07-30T03:25:35;5.32;;;2.65;;
46835;SDS011;32573;51.290;6.926;2022-07-30T03:28:08;5.05;;;2.72;;
46835;SDS011;32573;51.290;6.926;2022-07-30T03:30:38;4.10;;;2.40;;
46835;SDS011;32573;51.290;6.926;2022-07-30T03:33:10;5.22;;;2.60;;
46835;SDS011;32573;51.290;6.926;2022-07-30T03:35:40;4.38;;;2.63;;
46835;SDS011;32573;51.290;6.926;2022-07-30T03:38:10;4.90;;;2.40;;
46835;SDS011;32573;51.290;6.926;2022-07-30T03:40:40;5.85;;;2.63;;
46835;SDS011;32573;51.290;6.926;2022-07-30T03:43:10;4.38;;;2.40;;
46835;SDS011;32573;51.290;6.926;2022-07-30T03:46:00;4.78;;;2.60;;
46835;SDS011;32573;51.290;6.926;2022-07-30T03:48:33;4.22;;;2.45;;
46835;SDS011;32573;51.290;6.926;2022-07-30T03:51:02;5.05;;;2.70;;
46835;SDS011;32573;51.290;6.926;2022-07-30T03:53:38;5.25;;;2.78;;
46835;SDS011;32573;51.290;6.926;2022-07-30T03:56:26;6.32;;;2.85;;
46835;SDS011;32573;51.290;6.926;2022-07-30T03:58:58;4.88;;;3.00;;
46835;SDS011;32573;51.290;6.926;2022-07-30T04:01:27;5.03;;;2.75;;
46835;SDS011;32573;51.290;6.926;2022-07-30T04:04:04;5.13;;;2.80;;
46835;SDS011;32573;51.290;6.926;2022-07-30T04:06:33;4.82;;;2.60;;
46835;SDS011;32573;51.290;6.926;2022-07-30T04:09:06;4.65;;;2.83;;
46835;SDS011;32573;51.290;6.926;2022-07-30T04:11:35;5.25;;;2.90;;
46835;SDS011;32573;51.290;6.926;2022-07-30T04:14:11;4.57;;;2.90;;
46835;SDS011;32573;51.290;6.926;2022-07-30T04:16:44;5.07;;;2.83;;
46835;SDS011;32573;51.290;6.926;2022-07-30T04:19:20;4.93;;;3.00;;
46835;SDS011;32573;51.290;6.926;2022-07-30T04:21:52;4.47;;;2.72;;
46835;SDS011;32573;51.290;6.926;2022-07-30T04:24:23;4.63;;;2.90;;
46835;SDS011;32573;51.290;6.926;2022-07-30T04:26:54;4.60;;;2.92;;
46835;SDS011;32573;51.290;6.926;2022-07-30T04:29:24;4.78;;;3.10;;
46835;SDS011;32573;51.290;6.926;2022-07-30T04:31:54;5.55;;;3.25;;
46835;SDS011;32573;51.290;6.926;2022-07-30T04:34:32;4.88;;;2.95;;
46835;SDS011;32573;51.290;6.926;2022-07-30T04:37:03;4.80;;;2.90;;
46835;SDS011;32573;51.290;6.926;2022-07-30T04:39:31;5.78;;;2.97;;
46835;SDS011;32573;51.290;6.926;2022-07-30T04:41:59;4.80;;;3.08;;
46835;SDS011;32573;51.290;6.926;2022-07-30T04:44:37;4.47;;;2.97;;
46835;SDS011;32573;51.290;6.926;2022-07-30T04:47:26;5.30;;;2.85;;
46835;SDS011;32573;51.290;6.926;2022-07-30T04:50:17;6.25;;;3.60;;
46835;SDS011;32573;51.290;6.926;2022-07-30T04:52:49;4.68;;;2.97;;
46835;SDS011;32573;51.290;6.926;2022-07-30T04:55:24;5.45;;;2.97;;
46835;SDS011;32573;51.290;6.926;2022-07-30T04:57:54;5.00;;;2.80;;
46835;SDS011;32573;51.290;6.926;2022-07-30T05:00:28;5.15;;;3.00;;
46835;SDS011;32573;51.290;6.926;2022-07-30T05:02:59;4.60;;;2.70;;
46835;SDS011;32573;51.290;6.926;2022-07-30T05:05:31;5.97;;;3.47;;
46835;SDS011;32573;51.290;6.926;2022-07-30T05:08:00;4.88;;;3.17;;
46835;SDS011;32573;51.290;6.926;2022-07-30T05:10:31;5.07;;;2.97;;
46835;SDS011;32573;51.290;6.926;2022-07-30T05:12:59;5.80;;;3.38;;
46835;SDS011;32573;51.290;6.926;2022-07-30T05:15:29;4.90;;;3.08;;
46835;SDS011;32573;51.290;6.926;2022-07-30T05:18:04;6.68;;;3.45;;
46835;SDS011;32573;51.290;6.926;2022-07-30T05:20:37;5.38;;;3.13;;
46835;SDS011;32573;51.290;6.926;2022-07-30T05:23:24;5.43;;;2.95;;
46835;SDS011;32573;51.290;6.926;2022-07-30T05:26:01;6.85;;;3.20;;
46835;SDS011;32573;51.290;6.926;2022-07-30T05:28:35;5.72;;;3.38;;
46835;SDS011;32573;51.290;6.926;2022-07-30T05:31:11;8.38;;;3.53;;
46835;SDS011;32573;51.290;6.926;2022-07-30T05:33:46;5.90;;;3.70;;
46835;SDS011;32573;51.290;6.926;2022-07-30T05:36:17;6.05;;;3.88;;
46835;SDS011;32573;51.290;6.926;2022-07-30T05:38:45;6.13;;;3.65;;
46835;SDS011;32573;51.290;6.926;2022-07-30T05:41:34;6.95;;;4.10;;
46835;SDS011;32573;51.290;6.926;2022-07-30T05:44:09;7.18;;;4.70;;
46835;SDS011;32573;51.290;6.926;2022-07-30T05:46:39;7.55;;;4.63;;
46835;SDS011;32573;51.290;6.926;2022-07-30T05:49:08;6.18;;;4.53;;
46835;SDS011;32573;51.290;6.926;2022-07-30T05:51:37;7.78;;;5.15;;
46835;SDS011;32573;51.290;6.926;2022-07-30T05:54:05;8.57;;;4.75;;
46835;SDS011;32573;51.290;6.926;2022-07-30T05:56:52;8.30;;;4.63;;
46835;SDS011;32573;51.290;6.926;2022-07-30T05:59:30;7.63;;;5.50;;
46835;SDS011;32573;51.290;6.926;2022-07-30T06:02:05;8.23;;;5.13;;
46835;SDS011;32573;51.290;6.926;2022-07-30T06:04:54;10.20;;;5.22;;
46835;SDS011;32573;51.290;6.926;2022-07-30T06:07:23;17.08;;;9.23;;
46835;SDS011;32573;51.290;6.926;2022-07-30T06:09:54;21.75;;;10.35;;
46835;SDS011;32573;51.290;6.926;2022-07-30T06:12:26;20.33;;;10.20;;
46835;SDS011;32573;51.290;6.926;2022-07-30T06:14:55;18.15;;;9.30;;
46835;SDS011;32573;51.290;6.926;2022-07-30T06:17:41;22.83;;;11.55;;
46835;SDS011;32573;51.290;6.926;2022-07-30T06:20:35;27.20;;;11.77;;
46835;SDS011;32573;51.290;6.926;2022-07-30T06:23:15;26.38;;;11.80;;
46835;SDS011;32573;51.290;6.926;2022-07-30T06:26:02;39.75;;;15.90;;
46835;SDS011;32573;51.290;6.926;2022-07-30T06:28:31;44.40;;;18.38;;
46835;SDS011;32573;51.290;6.926;2022-07-30T06:31:14;48.90;;;18.95;;
46835;SDS011;32573;51.290;6.926;2022-07-30T06:33:43;47.20;;;18.88;;
46835;SDS011;32573;51.290;6.926;2022-07-30T06:36:13;53.00;;;20.40;;
46835;SDS011;32573;51.290;6.926;2022-07-30T06:38:50;58.90;;;21.60;;
46835;SDS011;32573;51.290;6.926;2022-07-30T06:41:29;66.60;;;25.25;;
46835;SDS011;32573;51.290;6.926;2022-07-30T06:43:58;60.55;;;23.00;;
46835;SDS011;32573;51.290;6.926;2022-07-30T06:46:58;51.67;;;22.23;;
46835;SDS011;32573;51.290;6.926;2022-07-30T06:49:34;60.38;;;22.50;;
46835;SDS011;32573;51.290;6.926;2022-07-30T06:52:06;61.38;;;24.60;;
46835;SDS011;32573;51.290;6.926;2022-07-30T06:54:35;49.05;;;21.67;;
46835;SDS011;32573;51.290;6.926;2022-07-30T06:57:15;75.07;;;29.73;;
46835;SDS011;32573;51.290;6.926;2022-07-30T06:59:43;69.93;;;26.30;;
46835;SDS011;32573;51.290;6.926;2022-07-30T07:02:44;64.30;;;26.88;;
46835;SDS011;32573;51.290;6.926;2022-07-30T07:05:15;74.60;;;29.45;;
46835;SDS011;32573;51.290;6.926;2022-07-30T07:07:46;65.32;;;27.17;;
46835;SDS011;32573;51.290;6.926;2022-07-30T07:10:27;49.78;;;23.13;;
46835;SDS011;32573;51.290;6.926;2022-07-30T07:13:18;50.65;;;22.70;;
46835;SDS011;32573;51.290;6.926;2022-07-30T07:15:47;41.88;;;20.88;;
46835;SDS011;32573;51.290;6.926;2022-07-30T07:18:19;55.08;;;24.75;;
46835;SDS011;32573;51.290;6.926;2022-07-30T07:21:05;43.45;;;20.10;;
46835;SDS011;32573;51.290;6.926;2022-07-30T07:23:36;42.85;;;20.58;;
46835;SDS011;32573;51.290;6.926;2022-07-30T07:26:18;47.00;;;21.70;;
46835;SDS011;32573;51.290;6.926;2022-07-30T07:28:46;39.10;;;20.08;;
46835;SDS011;32573;51.290;6.926;2022-07-30T07:31:15;48.05;;;22.33;;
46835;SDS011;32573;51.290;6.926;2022-07-30T07:34:03;44.28;;;20.65;;
46835;SDS011;32573;51.290;6.926;2022-07-30T07:36:33;41.53;;;19.60;;
46835;SDS011;32573;51.290;6.926;2022-07-30T07:39:02;36.92;;;18.60;;
46835;SDS011;32573;51.290;6.926;2022-07-30T07:41:40;41.88;;;19.35;;
46835;SDS011;32573;51.290;6.926;2022-07-30T07:44:18;33.63;;;17.05;;
46835;SDS011;32573;51.290;6.926;2022-07-30T07:46:47;45.28;;;20.95;;
46835;SDS011;32573;51.290;6.926;2022-07-30T07:49:15;48.75;;;22.05;;
46835;SDS011;32573;51.290;6.926;2022-07-30T07:51:51;50.20;;;22.90;;
46835;SDS011;32573;51.290;6.926;2022-07-30T07:54:20;37.30;;;20.00;;
46835;SDS011;32573;51.290;6.926;2022-07-30T07:56:51;49.95;;;24.38;;
46835;SDS011;32573;51.290;6.926;2022-07-30T07:59:29;45.22;;;22.85;;
46835;SDS011;32573;51.290;6.926;2022-07-30T08:02:21;37.85;;;20.23;;
46835;SDS011;32573;51.290;6.926;2022-07-30T08:05:04;33.33;;;17.88;;
46835;SDS011;32573;51.290;6.926;2022-07-30T08:07:49;36.65;;;19.25;;
46835;SDS011;32573;51.290;6.926;2022-07-30T08:10:35;46.55;;;23.30;;
46835;SDS011;32573;51.290;6.926;2022-07-30T08:13:22;41.70;;;21.70;;
46835;SDS011;32573;51.290;6.926;2022-07-30T08:16:29;32.90;;;18.90;;
46835;SDS011;32573;51.290;6.926;2022-07-30T08:19:26;29.30;;;16.58;;
46835;SDS011;32573;51.290;6.926;2022-07-30T08:22:10;25.08;;;15.43;;
46835;SDS011;32573;51.290;6.926;2022-07-30T08:24:40;24.73;;;14.65;;
46835;SDS011;32573;51.290;6.926;2022-07-30T08:27:08;22.95;;;13.77;;
46835;SDS011;32573;51.290;6.926;2022-07-30T08:29:37;21.65;;;12.88;;
46835;SDS011;32573;51.290;6.926;2022-07-30T08:32:05;18.02;;;11.27;;
46835;SDS011;32573;51.290;6.926;2022-07-30T08:34:37;18.27;;;11.07;;
46835;SDS011;32573;51.290;6.926;2022-07-30T08:37:05;16.05;;;10.20;;
46835;SDS011;32573;51.290;6.926;2022-07-30T08:39:41;18.77;;;11.32;;
46835;SDS011;32573;51.290;6.926;2022-07-30T08:42:10;17.13;;;11.10;;
46835;SDS011;32573;51.290;6.926;2022-07-30T08:44:40;16.42;;;9.88;;
46835;SDS011;32573;51.290;6.926;2022-07-30T08:47:15;18.50;;;10.48;;
46835;SDS011;32573;51.290;6.926;2022-07-30T08:50:07;14.65;;;9.23;;
46835;SDS011;32573;51.290;6.926;2022-07-30T08:52:47;11.50;;;7.60;;
46835;SDS011;32573;51.290;6.926;2022-07-30T08:55:17;16.10;;;8.90;;
46835;SDS011;32573;51.290;6.926;2022-07-30T08:57:48;15.48;;;9.52;;
46835;SDS011;32573;51.290;6.926;2022-07-30T09:00:16;19.50;;;10.45;;
46835;SDS011;32573;51.290;6.926;2022-07-30T09:02:48;16.83;;;10.05;;
46835;SDS011;32573;51.290;6.926;2022-07-30T09:05:17;14.90;;;9.15;;
46835;SDS011;32573;51.290;6.926;2022-07-30T09:07:46;15.32;;;9.25;;
46835;SDS011;32573;51.290;6.926;2022-07-30T09:10:20;12.70;;;7.60;;
46835;SDS011;32573;51.290;6.926;2022-07-30T09:12:50;11.75;;;6.93;;
46835;SDS011;32573;51.290;6.926;2022-07-30T09:15:19;11.05;;;6.90;;
46835;SDS011;32573;51.290;6.926;2022-07-30T09:17:51;15.52;;;8.70;;
46835;SDS011;32573;51.290;6.926;2022-07-30T09:20:23;14.77;;;8.63;;
46835;SDS011;32573;51.290;6.926;2022-07-30T09:22:54;15.00;;;8.82;;
46835;SDS011;32573;51.290;6.926;2022-07-30T09:25:44;12.95;;;7.18;;
46835;SDS011;32573;51.290;6.926;2022-07-30T09:28:33;11.65;;;6.55;;
46835;SDS011;32573;51.290;6.926;2022-07-30T09:31:13;11.60;;;7.25;;
46835;SDS011;32573;51.290;6.926;2022-07-30T09:34:00;10.00;;;6.22;;
46835;SDS011;32573;51.290;6.926;2022-07-30T09:36:47;13.95;;;8.25;;
46835;SDS011;32573;51.290;6.926;2022-07-30T09:39:39;14.68;;;8.10;;
46835;SDS011;32573;51.290;6.926;2022-07-30T09:42:33;8.55;;;5.35;;
46835;SDS011;32573;51.290;6.926;2022-07-30T09:45:07;8.43;;;5.47;;
46835;SDS011;32573;51.290;6.926;2022-07-30T09:47:41;10.18;;;6.32;;
46835;SDS011;32573;51.290;6.926;2022-07-30T09:50:11;11.23;;;7.20;;
46835;SDS011;32573;51.290;6.926;2022-07-30T09:53:04;7.47;;;4.88;;
46835;SDS011;32573;51.290;6.926;2022-07-30T09:55:36;8.57;;;4.85;;
46835;SDS011;32573;51.290;6.926;2022-07-30T09:58:10;12.93;;;6.72;;
46835;SDS011;32573;51.290;6.926;2022-07-30T10:00:55;8.30;;;4.90;;
46835;SDS011;32573;51.290;6.926;2022-07-30T10:03:45;10.27;;;5.35;;
46835;SDS011;32573;51.290;6.926;2022-07-30T10:06:33;12.18;;;6.18;;
46835;SDS011;32573;51.290;6.926;2022-07-30T10:09:23;10.68;;;5.53;;
46835;SDS011;32573;51.290;6.926;2022-07-30T10:11:53;8.50;;;4.40;;
46835;SDS011;32573;51.290;6.926;2022-07-30T10:14:27;7.40;;;4.15;;
46835;SDS011;32573;51.290;6.926;2022-07-30T10:16:59;7.93;;;5.57;;
46835;SDS011;32573;51.290;6.926;2022-07-30T10:19:30;7.97;;;4.00;;
46835;SDS011;32573;51.290;6.926;2022-07-30T10:22:26;8.90;;;4.22;;
46835;SDS011;32573;51.290;6.926;2022-07-30T10:25:34;7.85;;;3.80;;
46835;SDS011;32573;51.290;6.926;2022-07-30T10:28:35;6.88;;;3.97;;
46835;SDS011;32573;51.290;6.926;2022-07-30T10:31:06;7.40;;;4.65;;
46835;SDS011;32573;51.290;6.926;2022-07-30T10:33:55;8.02;;;4.82;;
46835;SDS011;32573;51.290;6.926;2022-07-30T10:36:24;7.78;;;4.00;;
46835;SDS011;32573;51.290;6.926;2022-07-30T10:38:53;6.53;;;3.50;;
46835;SDS011;32573;51.290;6.926;2022-07-30T10:41:28;6.57;;;2.90;;
46835;SDS011;32573;51.290;6.926;2022-07-30T10:44:17;7.85;;;3.00;;
46835;SDS011;32573;51.290;6.926;2022-07-30T10:47:07;6.00;;;3.33;;
46835;SDS011;32573;51.290;6.926;2022-07-30T10:49:39;6.67;;;3.20;;
46835;SDS011;32573;51.290;6.926;2022-07-30T10:52:09;5.78;;;3.13;;
46835;SDS011;32573;51.290;6.926;2022-07-30T10:54:39;6.93;;;3.13;;
46835;SDS011;32573;51.290;6.926;2022-07-30T10:57:11;5.22;;;2.55;;
46835;SDS011;32573;51.290;6.926;2022-07-30T11:00:11;5.57;;;2.50;;
46835;SDS011;32573;51.290;6.926;2022-07-30T11:06:24;4.53;;;2.28;;
46835;SDS011;32573;51.290;6.926;2022-07-30T11:08:55;5.63;;;2.42;;
46835;SDS011;32573;51.290;6.926;2022-07-30T11:11:43;6.90;;;2.28;;
46835;SDS011;32573;51.290;6.926;2022-07-30T11:18:03;4.45;;;2.15;;
46835;SDS011;32573;51.290;6.926;2022-07-30T11:20:39;4.15;;;2.00;;
46835;SDS011;32573;51.290;6.926;2022-07-30T11:26:06;4.80;;;2.00;;
46835;SDS011;32573;51.290;6.926;2022-07-30T11:28:41;3.58;;;1.80;;
46835;SDS011;32573;51.290;6.926;2022-07-30T11:31:24;3.90;;;1.88;;
46835;SDS011;32573;51.290;6.926;2022-07-30T11:37:01;4.18;;;2.03;;
46835;SDS011;32573;51.290;6.926;2022-07-30T11:40:11;4.32;;;2.35;;
46835;SDS011;32573;51.290;6.926;2022-07-30T11:42:40;4.68;;;2.10;;
46835;SDS011;32573;51.290;6.926;2022-07-30T11:45:19;4.25;;;2.20;;
46835;SDS011;32573;51.290;6.926;2022-07-30T11:47:53;6.07;;;2.40;;
46835;SDS011;32573;51.290;6.926;2022-07-30T11:50:24;6.38;;;2.65;;
46835;SDS011;32573;51.290;6.926;2022-07-30T11:52:54;5.82;;;2.30;;
46835;SDS011;32573;51.290;6.926;2022-07-30T11:55:28;4.18;;;2.20;;
46835;SDS011;32573;51.290;6.926;2022-07-30T11:57:59;4.10;;;2.10;;
46835;SDS011;32573;51.290;6.926;2022-07-30T12:00:32;5.28;;;2.30;;
46835;SDS011;32573;51.290;6.926;2022-07-30T12:03:06;5.28;;;2.28;;
46835;SDS011;32573;51.290;6.926;2022-07-30T12:05:38;4.80;;;2.30;;
46835;SDS011;32573;51.290;6.926;2022-07-30T12:08:07;5.95;;;2.38;;
46835;SDS011;32573;51.290;6.926;2022-07-30T12:10:58;4.35;;;2.40;;
46835;SDS011;32573;51.290;6.926;2022-07-30T12:13:28;3.45;;;2.10;;
46835;SDS011;32573;51.290;6.926;2022-07-30T12:16:13;5.78;;;2.28;;
46835;SDS011;32573;51.290;6.926;2022-07-30T12:18:43;4.35;;;2.33;;
46835;SDS011;32573;51.290;6.926;2022-07-30T12:21:12;8.30;;;2.78;;
46835;SDS011;32573;51.290;6.926;2022-07-30T12:23:42;6.07;;;2.40;;
46835;SDS011;32573;51.290;6.926;2022-07-30T12:26:23;3.58;;;2.30;;
46835;SDS011;32573;51.290;6.926;2022-07-30T12:28:54;4.32;;;2.60;;
46835;SDS011;32573;51.290;6.926;2022-07-30T12:31:23;4.15;;;2.10;;
46835;SDS011;32573;51.290;6.926;2022-07-30T12:33:52;3.88;;;2.00;;
46835;SDS011;32573;51.290;6.926;2022-07-30T12:36:26;3.53;;;2.08;;
46835;SDS011;32573;51.290;6.926;2022-07-30T12:38:56;4.30;;;2.20;;
46835;SDS011;32573;51.290;6.926;2022-07-30T12:41:42;3.90;;;1.88;;
46835;SDS011;32573;51.290;6.926;2022-07-30T12:47:02;5.47;;;2.15;;
46835;SDS011;32573;51.290;6.926;2022-07-30T12:49:32;4.57;;;2.25;;
46835;SDS011;32573;51.290;6.926;2022-07-30T12:52:18;4.13;;;2.00;;
46835;SDS011;32573;51.290;6.926;2022-07-30T12:54:55;3.88;;;1.67;;
46835;SDS011;32573;51.290;6.926;2022-07-30T12:57:34;4.75;;;2.15;;
46835;SDS011;32573;51.290;6.926;2022-07-30T13:00:19;3.95;;;1.90;;
46835;SDS011;32573;51.290;6.926;2022-07-30T13:02:48;3.50;;;1.67;;
46835;SDS011;32573;51.290;6.926;2022-07-30T13:05:17;4.85;;;1.77;;
46835;SDS011;32573;51.290;6.926;2022-07-30T13:07:55;3.92;;;1.80;;
46835;SDS011;32573;51.290;6.926;2022-07-30T13:10:25;3.65;;;2.00;;
46835;SDS011;32573;51.290;6.926;2022-07-30T13:12:59;3.90;;;2.03;;
46835;SDS011;32573;51.290;6.926;2022-07-30T13:15:28;4.45;;;2.10;;
46835;SDS011;32573;51.290;6.926;2022-07-30T13:17:56;3.67;;;1.80;;
46835;SDS011;32573;51.290;6.926;2022-07-30T13:20:24;4.10;;;2.10;;
46835;SDS011;32573;51.290;6.926;2022-07-30T13:22:53;5.00;;;2.00;;
46835;SDS011;32573;51.290;6.926;2022-07-30T13:25:27;6.28;;;1.80;;
46835;SDS011;32573;51.290;6.926;2022-07-30T13:28:07;5.28;;;2.10;;
46835;SDS011;32573;51.290;6.926;2022-07-30T13:30:36;3.63;;;2.00;;
46835;SDS011;32573;51.290;6.926;2022-07-30T13:33:04;3.45;;;1.70;;
46835;SDS011;32573;51.290;6.926;2022-07-30T13:35:33;3.13;;;1.40;;
46835;SDS011;32573;51.290;6.926;2022-07-30T13:38:01;3.55;;;1.90;;
46835;SDS011;32573;51.290;6.926;2022-07-30T13:40:32;4.10;;;1.77;;
46835;SDS011;32573;51.290;6.926;2022-07-30T13:43:00;3.30;;;1.60;;
46835;SDS011;32573;51.290;6.926;2022-07-30T13:45:31;3.55;;;1.73;;
46835;SDS011;32573;51.290;6.926;2022-07-30T13:47:59;6.25;;;1.70;;
46835;SDS011;32573;51.290;6.926;2022-07-30T13:50:28;4.10;;;1.63;;
46835;SDS011;32573;51.290;6.926;2022-07-30T13:52:57;4.15;;;1.60;;
46835;SDS011;32573;51.290;6.926;2022-07-30T13:55:28;4.53;;;1.70;;
46835;SDS011;32573;51.290;6.926;2022-07-30T13:57:57;4.32;;;1.58;;
46835;SDS011;32573;51.290;6.926;2022-07-30T14:00:26;4.38;;;1.70;;
46835;SDS011;32573;51.290;6.926;2022-07-30T14:03:00;3.05;;;1.38;;
46835;SDS011;32573;51.290;6.926;2022-07-30T14:05:29;4.38;;;1.60;;
46835;SDS011;32573;51.290;6.926;2022-07-30T14:07:59;3.00;;;1.42;;
46835;SDS011;32573;51.290;6.926;2022-07-30T14:10:27;3.50;;;1.42;;
46835;SDS011;32573;51.290;6.926;2022-07-30T14:12:56;3.45;;;1.40;;
46835;SDS011;32573;51.290;6.926;2022-07-30T14:15:26;3.55;;;1.33;;
46835;SDS011;32573;51.290;6.926;2022-07-30T14:17:57;4.50;;;1.85;;
46835;SDS011;32573;51.290;6.926;2022-07-30T14:20:27;3.58;;;1.60;;
46835;SDS011;32573;51.290;6.926;2022-07-30T14:22:56;3.70;;;1.50;;
46835;SDS011;32573;51.290;6.926;2022-07-30T14:25:25;3.78;;;1.40;;
46835;SDS011;32573;51.290;6.926;2022-07-30T14:27:53;4.72;;;1.60;;
46835;SDS011;32573;51.290;6.926;2022-07-30T14:30:22;3.85;;;1.40;;
46835;SDS011;32573;51.290;6.926;2022-07-30T14:32:50;4.00;;;1.60;;
46835;SDS011;32573;51.290;6.926;2022-07-30T14:35:27;3.45;;;1.45;;
46835;SDS011;32573;51.290;6.926;2022-07-30T14:37:56;4.53;;;1.42;;
46835;SDS011;32573;51.290;6.926;2022-07-30T14:40:24;4.30;;;1.70;;
46835;SDS011;32573;51.290;6.926;2022-07-30T14:42:52;3.47;;;1.55;;
46835;SDS011;32573;51.290;6.926;2022-07-30T14:45:22;2.90;;;1.35;;
46835;SDS011;32573;51.290;6.926;2022-07-30T14:47:51;2.38;;;1.10;;
46835;SDS011;32573;51.290;6.926;2022-07-30T14:50:19;3.58;;;1.40;;
46835;SDS011;32573;51.290;6.926;2022-07-30T14:52:49;2.45;;;1.25;;
46835;SDS011;32573;51.290;6.926;2022-07-30T14:55:18;3.85;;;1.30;;
46835;SDS011;32573;51.290;6.926;2022-07-30T14:57:47;3.30;;;1.50;;
46835;SDS011;32573;51.290;6.926;2022-07-30T15:00:15;2.95;;;1.40;;
46835;SDS011;32573;51.290;6.926;2022-07-30T15:02:44;3.15;;;1.33;;
46835;SDS011;32573;51.290;6.926;2022-07-30T15:05:12;2.80;;;1.40;;
46835;SDS011;32573;51.290;6.926;2022-07-30T15:07:41;2.80;;;1.20;;
46835;SDS011;32573;51.290;6.926;2022-07-30T15:10:12;4.13;;;1.30;;
46835;SDS011;32573;51.290;6.926;2022-07-30T15:12:41;4.28;;;1.40;;
46835;SDS011;32573;51.290;6.926;2022-07-30T15:15:10;2.95;;;1.17;;
46835;SDS011;32573;51.290;6.926;2022-07-30T15:17:40;4.10;;;1.33;;
46835;SDS011;32573;51.290;6.926;2022-07-30T15:20:09;4.50;;;1.30;;
46835;SDS011;32573;51.290;6.926;2022-07-30T15:22:38;2.83;;;1.30;;
46835;SDS011;32573;51.290;6.926;2022-07-30T15:25:06;4.13;;;1.38;;
46835;SDS011;32573;51.290;6.926;2022-07-30T15:27:37;2.72;;;1.20;;
46835;SDS011;32573;51.290;6.926;2022-07-30T15:30:05;3.83;;;1.30;;
46835;SDS011;32573;51.290;6.926;2022-07-30T15:32:34;3.17;;;1.10;;
46835;SDS011;32573;51.290;6.926;2022-07-30T15:35:03;3.22;;;1.33;;
46835;SDS011;32573;51.290;6.926;2022-07-30T15:37:37;2.92;;;1.38;;
46835;SDS011;32573;51.290;6.926;2022-07-30T15:40:07;2.63;;;1.20;;